createdAt,value
2022-12-20T00:29:18.051Z,2
2022-12-20T01:57:18.074Z,2
2022-12-20T02:09:18.076Z,2
2022-12-20T02:11:18.075Z,2
2022-12-20T05:40:18.227Z,3
2022-12-20T08:02:18.325Z,2
2022-12-20T10:10:18.243Z,2
2022-12-20T10:20:18.240Z,2
2022-12-20T10:21:18.251Z,3
2022-12-20T12:28:18.297Z,3
2022-12-20T12:30:18.287Z,3
2022-12-20T12:32:18.361Z,3
2022-12-20T12:33:24.203Z,2
2022-12-20T12:35:18.293Z,3
2022-12-20T12:36:18.289Z,3
2022-12-20T12:38:18.311Z,3
2022-12-20T12:39:18.287Z,2
2022-12-20T12:40:18.300Z,2
2022-12-20T12:42:18.296Z,3
2022-12-20T12:43:18.274Z,2
2022-12-20T12:44:18.292Z,3
2022-12-20T12:46:18.384Z,3
2022-12-20T12:48:18.301Z,2
2022-12-20T12:49:18.289Z,2
2022-12-20T12:52:18.287Z,3
2022-12-20T12:54:18.290Z,4
2022-12-20T12:55:18.286Z,2
2022-12-20T12:56:42.180Z,3
2022-12-20T12:59:18.290Z,2
2022-12-20T13:00:18.300Z,8
2022-12-20T13:05:23.975Z,3
2022-12-20T13:08:18.298Z,2
2022-12-20T13:09:18.297Z,2
2022-12-20T13:10:18.391Z,2
2022-12-20T13:13:18.321Z,2
2022-12-20T13:17:25.793Z,3
2022-12-20T13:20:18.342Z,3
2022-12-20T13:21:18.318Z,3
2022-12-20T13:22:18.367Z,3
2022-12-20T13:23:18.299Z,3
2022-12-20T13:24:18.368Z,3
2022-12-20T13:25:19.386Z,3
2022-12-20T13:26:18.286Z,4
2022-12-20T13:28:18.311Z,3
2022-12-20T13:30:18.303Z,3
2022-12-20T13:31:18.351Z,3
2022-12-20T13:33:18.311Z,2
2022-12-20T13:35:18.315Z,3
2022-12-20T13:36:18.312Z,3
2022-12-20T13:39:18.315Z,3
2022-12-20T13:40:18.316Z,3
2022-12-20T13:41:18.327Z,3
2022-12-20T13:42:18.311Z,3
2022-12-20T13:44:18.307Z,3
2022-12-20T13:45:18.337Z,3
2022-12-20T13:47:18.303Z,4
2022-12-20T13:48:18.306Z,4
2022-12-20T13:49:18.315Z,3
2022-12-20T13:50:18.315Z,3
2022-12-20T13:52:18.315Z,3
2022-12-20T13:53:18.319Z,3
2022-12-20T13:55:18.337Z,4
2022-12-20T13:56:18.355Z,4
2022-12-20T13:58:18.353Z,9
2022-12-20T14:00:18.318Z,15
2022-12-20T14:01:18.401Z,11
2022-12-20T14:03:18.464Z,6
2022-12-20T14:05:18.297Z,4
2022-12-20T14:08:18.387Z,4
2022-12-20T14:09:18.303Z,3
2022-12-20T14:10:18.300Z,3
2022-12-20T14:11:18.305Z,4
2022-12-20T14:16:18.369Z,4
2022-12-20T14:17:18.355Z,4
2022-12-20T14:21:18.323Z,4
2022-12-20T14:22:18.311Z,4
2022-12-20T14:23:18.327Z,4
2022-12-20T14:24:18.327Z,3
2022-12-20T14:26:18.393Z,4
2022-12-20T14:27:18.322Z,4
2022-12-20T14:29:18.326Z,4
2022-12-20T14:30:18.322Z,4
2022-12-20T14:31:18.398Z,5
2022-12-20T14:32:18.310Z,5
2022-12-20T14:34:18.333Z,5
2022-12-20T14:35:18.317Z,5
2022-12-20T14:36:18.328Z,5
2022-12-20T14:37:18.308Z,4
2022-12-20T14:38:18.319Z,2
2022-12-20T14:41:18.323Z,4
2022-12-20T14:42:18.325Z,5
2022-12-20T14:43:18.322Z,4
2022-12-20T14:46:18.383Z,4
2022-12-20T14:48:18.324Z,4
2022-12-20T14:50:18.324Z,5
2022-12-20T14:51:18.341Z,5
2022-12-20T14:53:18.341Z,4
2022-12-20T14:55:18.339Z,5
2022-12-20T14:57:18.352Z,5
2022-12-20T14:59:18.339Z,4
2022-12-20T15:02:18.564Z,4
2022-12-20T15:03:18.808Z,4
2022-12-20T15:04:18.367Z,4
2022-12-20T15:07:22.913Z,4
2022-12-20T15:10:18.364Z,4
2022-12-20T15:11:18.372Z,4
2022-12-20T15:12:18.339Z,4
2022-12-20T15:14:18.328Z,4
2022-12-20T15:15:29.414Z,4
2022-12-20T15:16:18.623Z,3
2022-12-20T15:19:18.356Z,3
2022-12-20T15:23:18.354Z,4
2022-12-20T15:24:18.344Z,3
2022-12-20T15:25:18.346Z,3
2022-12-20T15:27:18.341Z,5
2022-12-20T15:28:18.382Z,4
2022-12-20T15:30:18.343Z,4
2022-12-20T15:31:18.442Z,4
2022-12-20T15:32:18.333Z,4
2022-12-20T15:33:18.350Z,4
2022-12-20T15:35:18.348Z,4
2022-12-20T15:36:18.351Z,3
2022-12-20T15:37:19.211Z,3
2022-12-20T15:40:18.344Z,3
2022-12-20T15:41:18.360Z,3
2022-12-20T17:05:18.384Z,3
2022-12-20T17:16:18.421Z,4
2022-12-20T17:22:25.671Z,3
2022-12-20T19:37:18.413Z,5
2022-12-20T21:15:23.370Z,6
2022-12-20T21:23:18.472Z,6
2022-12-20T21:25:18.461Z,6
2022-12-20T21:26:18.467Z,6
2022-12-20T21:34:18.451Z,7
2022-12-20T21:46:18.526Z,6
2022-12-20T21:55:18.507Z,7
2022-12-20T23:08:18.483Z,7
